createdAt,value
2023-03-28T00:00:44.923Z,100295.13
2023-03-28T00:01:47.166Z,100298.59
2023-03-28T00:02:49.354Z,100301.13
2023-03-28T00:03:52.551Z,100301.94
2023-03-28T00:04:54.986Z,100308.69
2023-03-28T00:06:00.955Z,100299.25
2023-03-28T00:07:03.581Z,100306.19
2023-03-28T00:08:06.573Z,100307.94
2023-03-28T00:09:09.137Z,100309.69
2023-03-28T00:10:11.485Z,100313.94
2023-03-28T00:11:19.785Z,100312.19
2023-03-28T00:12:22.701Z,100313.03
2023-03-28T00:13:24.918Z,100316.50
2023-03-28T00:14:27.171Z,100315.72
2023-03-28T00:15:30.042Z,100317.41
2023-03-28T00:16:35.612Z,100317.41
2023-03-28T00:17:38.421Z,100320.78
2023-03-28T00:18:42.463Z,100323.28
2023-03-28T00:19:46.981Z,100321.59
2023-03-28T00:20:49.533Z,100323.13
2023-03-28T00:21:51.711Z,100329.19
2023-03-28T00:22:54.796Z,100328.22
2023-03-28T00:24:01.921Z,100336.06
2023-03-28T00:25:07.008Z,100330.91
2023-03-28T00:26:09.712Z,100329.13
2023-03-28T00:27:11.970Z,100330.78
2023-03-28T00:28:14.162Z,100335.16
2023-03-28T00:29:21.116Z,100329.13
2023-03-28T00:30:23.625Z,100334.31
2023-03-28T00:31:26.391Z,100332.59
2023-03-28T00:32:28.945Z,100334.31
2023-03-28T00:33:31.378Z,100339.50
2023-03-28T00:34:33.638Z,100336.84
2023-03-28T00:35:36.061Z,100337.69
2023-03-28T00:36:39.751Z,100339.41
2023-03-28T00:37:42.556Z,100341.16
2023-03-28T00:38:46.002Z,100340.28
2023-03-28T00:39:51.804Z,100342.88
2023-03-28T00:40:57.742Z,100339.47
2023-03-28T00:42:01.683Z,100346.31
2023-03-28T00:43:04.291Z,100348.09
2023-03-28T00:44:44.014Z,100345.50
2023-03-28T00:45:53.044Z,100342.97
2023-03-28T00:47:01.532Z,100348.16
2023-03-28T00:48:15.457Z,100348.25
2023-03-28T00:49:26.100Z,100343.94
2023-03-28T00:50:34.343Z,100342.25
2023-03-28T00:51:44.638Z,100343.16
2023-03-28T00:52:55.287Z,100345.75
2023-03-28T00:54:00.639Z,100344.06
2023-03-28T00:55:05.879Z,100351.78
2023-03-28T00:56:11.514Z,100341.38
2023-03-28T00:57:16.466Z,100343.97
2023-03-28T00:58:26.672Z,100343.06
2023-03-28T00:59:35.126Z,100346.44
2023-03-28T01:00:41.319Z,100343.75
2023-03-28T01:01:45.055Z,100350.75
2023-03-28T01:02:53.325Z,100346.38
2023-03-28T01:04:02.277Z,100340.44
2023-03-28T01:05:06.129Z,100341.34
2023-03-28T01:06:10.175Z,100349.09
2023-03-28T01:07:16.269Z,100345.66
2023-03-28T01:08:24.835Z,100349.09
2023-03-28T01:09:28.193Z,100348.19
2023-03-28T01:10:32.659Z,100350.81
2023-03-28T01:11:38.235Z,100349.97
2023-03-28T01:12:43.234Z,100351.69
2023-03-28T01:13:49.851Z,100344.75
2023-03-28T01:14:52.678Z,100351.59
2023-03-28T01:15:55.739Z,100346.31
2023-03-28T01:16:58.294Z,100342.75
2023-03-28T01:18:03.378Z,100341.03
2023-03-28T01:19:21.983Z,100351.31
2023-03-28T01:20:55.063Z,100349.63
2023-03-28T01:22:13.798Z,100353.00
2023-03-28T01:23:33.745Z,100354.75
2023-03-28T01:25:20.388Z,100354.72
2023-03-28T01:26:52.946Z,100357.28
2023-03-28T01:28:05.350Z,100357.16
2023-03-28T01:29:21.148Z,100362.13
2023-03-28T01:30:57.997Z,100357.88
2023-03-28T01:32:50.844Z,100360.38
2023-03-28T01:34:38.611Z,100356.78
2023-03-28T01:36:01.355Z,100354.06
2023-03-28T01:37:23.715Z,100369.50
2023-03-28T01:38:54.107Z,100372.03
2023-03-28T01:40:29.165Z,100372.19
2023-03-28T01:41:53.807Z,100365.94
2023-03-28T01:43:14.294Z,100371.06
2023-03-28T01:44:26.910Z,100385.72
2023-03-28T01:46:18.589Z,100377.00
2023-03-28T01:47:42.258Z,100383.09
2023-03-28T01:49:02.615Z,100385.50
2023-03-28T01:50:10.752Z,100378.38
2023-03-28T01:51:27.412Z,100382.53
2023-03-28T01:52:36.151Z,100381.69
2023-03-28T01:54:07.668Z,100385.31
2023-03-28T01:55:24.806Z,100386.25
2023-03-28T01:56:38.172Z,100382.84
2023-03-28T01:57:56.229Z,100380.16
2023-03-28T01:59:09.192Z,100380.16
2023-03-28T02:02:19.340Z,100378.31
2023-03-28T02:03:46.194Z,100382.81
2023-03-28T02:05:15.822Z,100383.75
2023-03-28T02:06:21.227Z,100382.94
2023-03-28T02:07:25.497Z,100379.38
2023-03-28T02:08:42.906Z,100379.38
2023-03-28T02:10:15.323Z,100377.75
2023-03-28T02:11:56.269Z,100374.13
2023-03-28T02:13:12.307Z,100381.91
2023-03-28T02:14:27.596Z,100373.31
2023-03-28T02:15:57.726Z,100369.97
2023-03-28T02:17:06.298Z,100370.78
2023-03-28T02:18:45.339Z,100374.38
2023-03-28T02:20:19.356Z,100375.97
2023-03-28T02:21:56.454Z,100368.97
2023-03-28T02:23:19.406Z,100379.22
2023-03-28T02:24:42.078Z,100367.31
2023-03-28T02:25:49.359Z,100370.78
2023-03-28T02:27:12.100Z,100370.63
2023-03-28T02:28:31.705Z,100371.63
2023-03-28T02:30:03.567Z,100369.84
2023-03-28T02:31:16.206Z,100367.16
2023-03-28T02:32:21.744Z,100372.41
2023-03-28T02:33:41.705Z,100371.28
2023-03-28T02:34:48.773Z,100363.41
2023-03-28T02:36:08.295Z,100379.81
2023-03-28T02:37:29.164Z,100376.47
2023-03-28T02:39:04.725Z,100373.09
2023-03-28T02:40:35.850Z,100378.25
2023-03-28T02:41:56.925Z,100376.53
2023-03-28T02:43:32.289Z,100371.41
2023-03-28T02:45:16.411Z,100376.50
2023-03-28T02:46:27.586Z,100371.47
2023-03-28T02:47:54.579Z,100374.00
2023-03-28T02:49:23.131Z,100380.81
2023-03-28T02:50:36.941Z,100378.97
2023-03-28T02:51:48.803Z,100385.94
2023-03-28T02:53:04.003Z,100378.03
2023-03-28T02:54:22.937Z,100385.66
2023-03-28T02:56:02.282Z,100384.03
2023-03-28T02:57:45.577Z,100389.88
2023-03-28T02:58:55.564Z,100384.75
2023-03-28T03:00:05.424Z,100382.34
2023-03-28T03:01:10.435Z,100380.41
2023-03-28T03:02:18.985Z,100384.72
2023-03-28T03:03:23.319Z,100385.56
2023-03-28T03:04:25.654Z,100381.34
2023-03-28T03:05:28.011Z,100383.06
2023-03-28T03:06:30.222Z,100382.25
2023-03-28T03:07:32.469Z,100378.84
2023-03-28T03:08:35.143Z,100384.09
2023-03-28T03:09:37.461Z,100378.16
2023-03-28T03:10:39.789Z,100386.72
2023-03-28T03:11:41.964Z,100387.50
2023-03-28T03:12:44.559Z,100385.69
2023-03-28T03:13:47.172Z,100381.34
2023-03-28T03:14:50.819Z,100378.47
2023-03-28T03:16:12.994Z,100375.66
2023-03-28T03:17:15.410Z,100380.88
2023-03-28T03:18:18.154Z,100378.34
2023-03-28T03:19:20.781Z,100375.00
2023-03-28T03:20:23.090Z,100369.00
2023-03-28T03:21:26.499Z,100370.78
2023-03-28T03:22:28.655Z,100368.22
2023-03-28T03:23:30.939Z,100378.59
2023-03-28T03:24:36.341Z,100375.19
2023-03-28T03:25:39.294Z,100371.78
2023-03-28T03:26:48.709Z,100372.66
2023-03-28T03:27:51.988Z,100372.72
2023-03-28T03:28:57.201Z,100370.19
2023-03-28T03:30:04.124Z,100371.00
2023-03-28T03:31:23.263Z,100372.75
2023-03-28T03:32:45.347Z,100369.34
2023-03-28T03:33:47.755Z,100378.03
2023-03-28T03:34:53.167Z,100365.06
2023-03-28T03:35:55.600Z,100369.38
2023-03-28T03:36:57.797Z,100375.50
2023-03-28T03:38:00.862Z,100369.41
2023-03-28T03:39:03.685Z,100374.59
2023-03-28T03:40:06.993Z,100369.28
2023-03-28T03:41:11.239Z,100377.94
2023-03-28T03:42:14.085Z,100365.84
2023-03-28T03:43:16.741Z,100368.47
2023-03-28T03:44:19.906Z,100369.31
2023-03-28T03:45:22.635Z,100366.72
2023-03-28T03:46:25.036Z,100358.91
2023-03-28T03:47:28.456Z,100368.41
2023-03-28T03:48:30.790Z,100364.94
2023-03-28T03:49:34.861Z,100356.44
2023-03-28T03:50:39.700Z,100365.81
2023-03-28T03:51:48.644Z,100366.63
2023-03-28T03:52:52.419Z,100362.25
2023-03-28T03:54:00.443Z,100370.84
2023-03-28T03:55:10.497Z,100366.53
2023-03-28T03:56:15.255Z,100367.34
2023-03-28T03:57:27.616Z,100375.16
2023-03-28T03:58:34.623Z,100376.97
2023-03-28T03:59:41.197Z,100364.19
2023-03-28T04:00:48.819Z,100381.38
2023-03-28T04:02:12.049Z,100376.09
2023-03-28T04:03:26.473Z,100369.16
2023-03-28T04:04:30.373Z,100376.97
2023-03-28T04:05:48.925Z,100370.81
2023-03-28T04:06:51.459Z,100380.28
2023-03-28T04:07:53.839Z,100382.75
2023-03-28T04:09:03.187Z,100380.97
2023-03-28T04:10:31.304Z,100371.22
2023-03-28T04:11:34.717Z,100378.88
2023-03-28T04:12:37.059Z,100380.34
2023-03-28T04:13:41.030Z,100373.44
2023-03-28T04:14:43.425Z,100382.75
2023-03-28T04:16:04.987Z,100385.25
2023-03-28T04:17:16.135Z,100383.56
2023-03-28T04:18:20.460Z,100384.41
2023-03-28T04:19:24.361Z,100376.78
2023-03-28T04:20:29.720Z,100390.66
2023-03-28T04:21:42.865Z,100395.06
2023-03-28T04:22:46.500Z,100389.97
2023-03-28T04:23:52.175Z,100389.00
2023-03-28T04:25:04.581Z,100392.28
2023-03-28T04:26:15.325Z,100396.41
2023-03-28T04:27:26.279Z,100393.06
2023-03-28T04:28:29.285Z,100393.91
2023-03-28T04:29:37.020Z,100402.50
2023-03-28T04:30:58.171Z,100400.56
2023-03-28T04:32:05.512Z,100404.63
2023-03-28T04:33:33.697Z,100402.06
2023-03-28T04:34:38.894Z,100399.31
2023-03-28T04:35:51.735Z,100401.00
2023-03-28T04:36:56.782Z,100401.06
2023-03-28T04:37:59.882Z,100395.91
2023-03-28T04:39:03.779Z,100393.25
2023-03-28T04:40:21.655Z,100397.66
2023-03-28T04:41:34.126Z,100403.53
2023-03-28T04:42:55.612Z,100402.84
2023-03-28T04:44:07.849Z,100405.72
2023-03-28T04:45:18.821Z,100399.00
2023-03-28T04:46:22.841Z,100401.50
2023-03-28T04:47:25.484Z,100398.88
2023-03-28T04:48:28.040Z,100395.44
2023-03-28T04:49:30.394Z,100401.59
2023-03-28T04:50:35.139Z,100411.16
2023-03-28T04:51:38.105Z,100403.28
2023-03-28T04:52:40.476Z,100406.63
2023-03-28T04:53:42.970Z,100395.38
2023-03-28T04:55:10.186Z,100397.97
2023-03-28T04:56:13.940Z,100407.41
2023-03-28T04:57:16.473Z,100398.75
2023-03-28T04:58:23.705Z,100408.66
2023-03-28T04:59:26.288Z,100408.78
2023-03-28T05:00:29.736Z,100407.97
2023-03-28T05:01:33.019Z,100412.22
2023-03-28T05:02:56.346Z,100416.38
2023-03-28T05:04:01.178Z,100413.88
2023-03-28T05:05:03.903Z,100417.31
2023-03-28T05:06:07.119Z,100422.34
2023-03-28T05:07:09.671Z,100421.56
2023-03-28T05:08:13.225Z,100422.22
2023-03-28T05:09:16.660Z,100423.16
2023-03-28T05:10:18.920Z,100417.16
2023-03-28T05:11:24.690Z,100423.22
2023-03-28T05:12:26.893Z,100420.78
2023-03-28T05:13:39.590Z,100417.28
2023-03-28T05:14:50.808Z,100429.16
2023-03-28T05:15:53.692Z,100429.22
2023-03-28T05:17:18.593Z,100429.91
2023-03-28T05:18:31.188Z,100427.38
2023-03-28T05:19:33.614Z,100437.03
2023-03-28T05:20:42.646Z,100427.56
2023-03-28T05:21:44.897Z,100430.22
2023-03-28T05:22:49.099Z,100437.00
2023-03-28T05:23:51.968Z,100443.25
2023-03-28T05:24:57.810Z,100440.75
2023-03-28T05:26:01.064Z,100432.56
2023-03-28T05:27:06.537Z,100441.28
2023-03-28T05:28:09.124Z,100437.88
2023-03-28T05:29:22.652Z,100449.16
2023-03-28T05:30:26.088Z,100439.59
2023-03-28T05:31:31.084Z,100445.31
2023-03-28T05:32:49.993Z,100444.25
2023-03-28T05:33:52.410Z,100441.75
2023-03-28T05:35:13.402Z,100446.06
2023-03-28T05:36:15.718Z,100451.28
2023-03-28T05:37:18.118Z,100443.94
2023-03-28T05:38:24.935Z,100447.75
2023-03-28T05:39:31.658Z,100449.25
2023-03-28T05:40:42.357Z,100455.56
2023-03-28T05:41:44.668Z,100447.72
2023-03-28T05:42:47.221Z,100448.00
2023-03-28T05:43:51.501Z,100446.34
2023-03-28T05:45:12.407Z,100435.31
2023-03-28T05:46:26.363Z,100434.44
2023-03-28T05:47:29.609Z,100432.94
2023-03-28T05:48:33.284Z,100435.66
2023-03-28T05:49:35.553Z,100425.66
2023-03-28T05:50:38.350Z,100439.00
2023-03-28T05:58:00.195Z,100433.00
2023-03-28T05:59:11.662Z,100440.25
2023-03-28T06:00:15.126Z,100436.16
2023-03-28T06:01:29.167Z,100441.47
2023-03-28T06:02:36.214Z,100430.63
2023-03-28T06:03:40.142Z,100448.75
2023-03-28T06:04:44.975Z,100433.28
2023-03-28T06:05:49.375Z,100444.06
2023-03-28T06:06:57.829Z,100440.53
2023-03-28T06:08:02.628Z,100442.44
2023-03-28T06:09:05.302Z,100438.13
2023-03-28T06:10:20.985Z,100448.25
2023-03-28T06:11:49.542Z,100441.41
2023-03-28T06:12:51.819Z,100450.22
2023-03-28T06:13:54.204Z,100445.19
2023-03-28T06:14:57.088Z,100455.03
2023-03-28T06:16:03.121Z,100452.53
2023-03-28T06:17:08.557Z,100457.16
2023-03-28T06:18:20.753Z,100465.13
2023-03-28T06:19:25.962Z,100458.09
2023-03-28T06:20:30.638Z,100470.03
2023-03-28T06:21:33.853Z,100481.34
2023-03-28T06:22:40.671Z,100482.03
2023-03-28T06:23:45.780Z,100480.84
2023-03-28T06:24:58.539Z,100496.78
2023-03-28T06:26:03.428Z,100491.13
2023-03-28T06:27:13.184Z,100493.56
2023-03-28T06:28:15.723Z,100498.78
2023-03-28T06:29:41.250Z,100490.00
2023-03-28T06:30:47.982Z,100498.47
2023-03-28T06:31:50.302Z,100493.16
2023-03-28T06:32:54.122Z,100492.19
2023-03-28T06:33:56.426Z,100496.44
2023-03-28T06:34:59.189Z,100487.84
2023-03-28T06:36:01.677Z,100487.84
2023-03-28T06:37:07.739Z,100491.31
2023-03-28T06:38:36.081Z,100498.88
2023-03-28T06:39:39.492Z,100490.41
2023-03-28T06:40:41.797Z,100499.91
2023-03-28T06:41:44.588Z,100492.19
2023-03-28T06:42:46.891Z,100490.41
2023-03-28T06:43:59.001Z,100491.41
2023-03-28T06:45:30.588Z,100493.28
2023-03-28T06:46:37.784Z,100492.44
2023-03-28T06:47:40.612Z,100484.66
2023-03-28T06:48:43.184Z,100488.03
2023-03-28T06:50:04.425Z,100481.25
2023-03-28T06:51:19.374Z,100486.59
2023-03-28T06:52:23.090Z,100480.66
2023-03-28T06:53:27.368Z,100489.44
2023-03-28T06:54:29.565Z,100488.59
2023-03-28T06:55:35.405Z,100489.63
2023-03-28T06:56:37.824Z,100481.75
2023-03-28T06:57:40.319Z,100487.88
2023-03-28T06:59:05.770Z,100488.78
2023-03-28T07:00:09.464Z,100483.69
2023-03-28T07:01:34.922Z,100484.59
2023-03-28T07:02:59.936Z,100476.13
2023-03-28T07:04:03.055Z,100483.88
2023-03-28T07:05:06.074Z,100483.03
2023-03-28T07:06:10.177Z,100487.53
2023-03-28T07:07:12.462Z,100478.03
2023-03-28T07:08:14.835Z,100472.91
2023-03-28T07:09:17.189Z,100485.97
2023-03-28T07:10:25.383Z,100481.69
2023-03-28T07:11:28.103Z,100485.22
2023-03-28T07:12:30.656Z,100489.47
2023-03-28T07:13:32.955Z,100478.41
2023-03-28T07:14:44.613Z,100478.47
2023-03-28T07:15:46.899Z,100481.06
2023-03-28T07:16:49.220Z,100483.63
2023-03-28T07:17:53.132Z,100481.06
2023-03-28T07:18:55.961Z,100480.03
2023-03-28T07:20:06.721Z,100485.25
2023-03-28T07:21:11.198Z,100481.78
2023-03-28T07:22:13.448Z,100482.66
2023-03-28T07:23:15.746Z,100488.66
2023-03-28T07:24:17.963Z,100494.00
2023-03-28T07:25:37.542Z,100482.75
2023-03-28T07:26:39.971Z,100490.50
2023-03-28T07:27:44.292Z,100496.53
2023-03-28T07:28:49.783Z,100487.97
2023-03-28T07:29:52.213Z,100488.03
2023-03-28T07:30:54.756Z,100489.06
2023-03-28T07:31:57.438Z,100495.06
2023-03-28T07:33:13.818Z,100500.38
2023-03-28T07:34:20.543Z,100500.34
2023-03-28T07:35:23.489Z,100505.56
2023-03-28T07:36:28.890Z,100501.28
2023-03-28T07:37:37.380Z,100506.44
2023-03-28T07:38:47.268Z,100515.09
2023-03-28T07:39:51.215Z,100507.38
2023-03-28T07:41:00.636Z,100511.72
2023-03-28T07:42:03.461Z,100510.78
2023-03-28T07:43:06.013Z,100508.16
2023-03-28T07:44:08.512Z,100508.03
2023-03-28T07:45:11.457Z,100515.00
2023-03-28T07:46:15.529Z,100514.25
2023-03-28T07:47:18.269Z,100516.84
2023-03-28T07:48:21.265Z,100505.53
2023-03-28T07:49:23.726Z,100507.19
2023-03-28T07:50:26.179Z,100510.44
2023-03-28T07:51:28.993Z,100504.91
2023-03-28T07:52:31.269Z,100515.34
2023-03-28T07:53:34.779Z,100514.59
2023-03-28T07:54:37.789Z,100512.66
2023-03-28T07:55:54.266Z,100513.22
2023-03-28T07:57:04.035Z,100511.69
2023-03-28T07:58:24.896Z,100512.97
2023-03-28T07:59:30.313Z,100511.44
2023-03-28T08:00:33.089Z,100510.47
2023-03-28T08:02:04.358Z,100516.16
2023-03-28T08:03:07.975Z,100514.41
2023-03-28T08:04:11.847Z,100513.22
2023-03-28T08:05:34.098Z,100518.69
2023-03-28T08:06:40.231Z,100513.97
2023-03-28T08:07:45.951Z,100518.97
2023-03-28T08:08:48.571Z,100523.91
2023-03-28T08:10:14.011Z,100515.97
2023-03-28T08:11:16.438Z,100530.34
2023-03-28T08:12:19.594Z,100521.50
2023-03-28T08:13:24.333Z,100524.31
2023-03-28T08:14:30.561Z,100527.59
2023-03-28T08:15:33.281Z,100523.84
2023-03-28T08:16:35.853Z,100522.56
2023-03-28T08:17:38.273Z,100528.16
2023-03-28T08:18:41.578Z,100525.41
2023-03-28T08:19:44.299Z,100526.56
2023-03-28T08:20:48.095Z,100524.84
2023-03-28T08:21:51.593Z,100527.25
2023-03-28T08:22:54.218Z,100519.19
2023-03-28T08:24:35.180Z,100514.09
2023-03-28T08:25:45.279Z,100519.97
2023-03-28T08:26:50.647Z,100512.63
2023-03-28T08:27:53.617Z,100507.63
2023-03-28T08:28:58.642Z,100516.81
2023-03-28T08:30:02.419Z,100521.06
2023-03-28T08:31:14.339Z,100515.94
2023-03-28T08:32:18.713Z,100508.03
2023-03-28T08:33:21.999Z,100506.84
2023-03-28T08:34:24.670Z,100505.75
2023-03-28T08:35:27.528Z,100499.91
2023-03-28T08:36:33.475Z,100507.19
2023-03-28T08:37:36.035Z,100511.28
2023-03-28T08:38:38.609Z,100515.97
2023-03-28T08:39:42.632Z,100515.22
2023-03-28T08:40:58.721Z,100510.00
2023-03-28T08:42:19.907Z,100511.72
2023-03-28T08:43:36.943Z,100516.06
2023-03-28T08:44:52.144Z,100512.59
2023-03-28T08:45:59.822Z,100516.34
2023-03-28T08:47:22.549Z,100520.34
2023-03-28T08:48:30.900Z,100523.50
2023-03-28T08:49:42.929Z,100521.13
2023-03-28T08:51:08.422Z,100526.78
2023-03-28T08:52:15.998Z,100525.50
2023-03-28T08:53:30.266Z,100526.81
2023-03-28T08:54:40.458Z,100522.75
2023-03-28T08:55:45.694Z,100518.69
2023-03-28T08:56:53.758Z,100518.09
2023-03-28T08:57:57.307Z,100525.09
2023-03-28T08:59:15.986Z,100519.34
2023-03-28T09:00:24.461Z,100531.28
2023-03-28T09:01:29.439Z,100522.00
2023-03-28T09:02:32.093Z,100521.25
2023-03-28T09:03:36.271Z,100520.69
2023-03-28T09:04:44.974Z,100525.44
2023-03-28T09:06:04.797Z,100518.19
2023-03-28T09:07:22.370Z,100511.84
2023-03-28T09:08:38.116Z,100512.66
2023-03-28T09:09:55.256Z,100513.09
2023-03-28T09:11:23.480Z,100518.34
2023-03-28T09:12:35.352Z,100512.66
2023-03-28T09:13:49.414Z,100514.66
2023-03-28T09:15:17.596Z,100517.72
2023-03-28T09:16:37.764Z,100512.97
2023-03-28T09:18:28.764Z,100524.56
2023-03-28T09:19:48.428Z,100525.34
2023-03-28T09:21:47.189Z,100516.97
2023-03-28T09:23:09.770Z,100509.38
2023-03-28T09:25:19.383Z,100503.41
2023-03-28T09:26:32.812Z,100498.91
2023-03-28T09:27:56.109Z,100496.91
2023-03-28T09:29:10.896Z,100505.22
2023-03-28T09:30:18.987Z,100512.84
2023-03-28T09:31:27.793Z,100504.00
2023-03-28T09:32:38.405Z,100502.53
2023-03-28T09:33:45.774Z,100504.09
2023-03-28T09:34:53.628Z,100503.50
2023-03-28T09:35:57.541Z,100511.78
2023-03-28T09:37:13.502Z,100511.09
2023-03-28T09:38:36.103Z,100512.25
2023-03-28T09:39:49.384Z,100501.59
2023-03-28T09:40:56.095Z,100510.78
2023-03-28T09:42:14.765Z,100504.78
2023-03-28T09:43:28.750Z,100504.75
2023-03-28T09:45:22.748Z,100504.19
2023-03-28T09:46:46.940Z,100498.63
2023-03-28T09:48:07.304Z,100501.47
2023-03-28T09:49:25.586Z,100504.72
2023-03-28T09:50:34.554Z,100500.72
2023-03-28T09:51:37.918Z,100503.13
2023-03-28T09:52:40.345Z,100489.34
2023-03-28T09:53:43.330Z,100503.34
2023-03-28T09:54:46.963Z,100494.56
2023-03-28T09:56:03.376Z,100496.28
2023-03-28T09:57:08.514Z,100491.66
2023-03-28T09:58:18.234Z,100495.63
2023-03-28T09:59:43.314Z,100493.13
2023-03-28T10:00:51.906Z,100487.06
2023-03-28T10:02:29.284Z,100493.25
2023-03-28T10:03:35.742Z,100485.31
2023-03-28T10:04:41.743Z,100484.94
2023-03-28T10:06:23.695Z,100482.78
2023-03-28T10:07:32.679Z,100472.13
2023-03-28T10:08:50.811Z,100477.31
2023-03-28T10:10:25.341Z,100477.88
2023-03-28T10:11:54.162Z,100483.06
2023-03-28T10:13:02.190Z,100485.91
2023-03-28T10:14:06.078Z,100472.38
2023-03-28T10:15:39.056Z,100479.69
2023-03-28T10:17:23.309Z,100473.53
2023-03-28T10:18:28.340Z,100476.94
2023-03-28T10:19:52.257Z,100475.13
2023-03-28T10:21:09.044Z,100473.13
2023-03-28T10:22:21.335Z,100472.47
2023-03-28T10:23:26.711Z,100464.00
2023-03-28T10:24:32.806Z,100473.41
2023-03-28T10:25:46.015Z,100468.59
2023-03-28T10:26:49.341Z,100470.38
2023-03-28T10:27:52.582Z,100474.34
2023-03-28T10:29:02.249Z,100473.22
2023-03-28T10:30:25.278Z,100470.91
2023-03-28T10:31:31.775Z,100467.53
2023-03-28T10:33:21.214Z,100459.97
2023-03-28T10:35:07.748Z,100461.28
2023-03-28T10:36:48.025Z,100468.41
2023-03-28T10:37:56.808Z,100462.09
2023-03-28T10:39:23.171Z,100456.06
2023-03-28T10:41:01.376Z,100454.63
2023-03-28T10:42:18.451Z,100454.16
2023-03-28T10:43:49.720Z,100460.00
2023-03-28T10:45:07.190Z,100464.00
2023-03-28T10:46:27.786Z,100461.81
2023-03-28T10:47:55.823Z,100469.53
2023-03-28T10:49:03.916Z,100464.03
2023-03-28T10:50:21.154Z,100464.75
2023-03-28T10:51:25.963Z,100462.41
2023-03-28T10:52:43.192Z,100459.25
2023-03-28T10:54:06.478Z,100451.34
2023-03-28T10:55:18.332Z,100452.88
2023-03-28T10:57:12.682Z,100453.38
2023-03-28T10:58:32.590Z,100450.47
2023-03-28T10:59:51.308Z,100448.75
2023-03-28T11:01:18.267Z,100449.72
2023-03-28T11:03:00.170Z,100449.25
2023-03-28T11:04:24.179Z,100445.38
2023-03-28T11:05:42.408Z,100438.78
2023-03-28T11:06:54.932Z,100435.03
2023-03-28T11:08:30.798Z,100436.59
2023-03-28T11:09:46.635Z,100436.56
2023-03-28T11:11:47.217Z,100442.78
2023-03-28T11:13:04.300Z,100445.63
2023-03-28T11:14:22.129Z,100441.06
2023-03-28T11:15:29.622Z,100430.50
2023-03-28T11:16:57.526Z,100424.25
2023-03-28T11:18:31.115Z,100428.97
2023-03-28T11:20:17.325Z,100425.66
2023-03-28T11:21:36.859Z,100429.34
2023-03-28T11:23:05.627Z,100421.50
2023-03-28T11:24:36.213Z,100418.97
2023-03-28T11:26:13.233Z,100414.69
2023-03-28T11:27:53.890Z,100420.09
2023-03-28T11:29:19.648Z,100418.81
2023-03-28T11:30:28.238Z,100407.84
2023-03-28T11:32:19.750Z,100413.72
2023-03-28T11:33:40.628Z,100404.16
2023-03-28T11:35:17.914Z,100404.81
2023-03-28T11:36:29.390Z,100404.47
2023-03-28T11:37:46.327Z,100406.59
2023-03-28T11:39:01.159Z,100405.31
2023-03-28T11:40:40.584Z,100412.28
2023-03-28T11:41:50.067Z,100406.44
2023-03-28T11:43:13.601Z,100397.50
2023-03-28T11:44:28.757Z,100401.63
2023-03-28T11:45:52.043Z,100400.13
2023-03-28T11:47:04.737Z,100391.81
2023-03-28T11:48:12.474Z,100392.56
2023-03-28T11:49:34.825Z,100394.03
2023-03-28T11:51:01.392Z,100390.34
2023-03-28T11:52:40.322Z,100389.47
2023-03-28T11:54:00.736Z,100377.84
2023-03-28T11:55:27.559Z,100387.72
2023-03-28T11:56:56.693Z,100394.19
2023-03-28T11:58:22.487Z,100385.38
2023-03-28T11:59:46.423Z,100380.41
2023-03-28T12:01:06.690Z,100380.94
2023-03-28T12:02:25.879Z,100383.75
2023-03-28T12:03:46.536Z,100388.44
2023-03-28T12:04:57.102Z,100374.50
2023-03-28T12:06:12.985Z,100379.41
2023-03-28T12:07:30.288Z,100379.69
2023-03-28T12:08:43.853Z,100373.84
2023-03-28T12:09:49.356Z,100379.59
2023-03-28T12:10:57.994Z,100372.69
2023-03-28T12:12:51.244Z,100373.44
2023-03-28T12:14:41.618Z,100370.84
2023-03-28T12:16:07.084Z,100364.63
2023-03-28T12:17:23.059Z,100357.91
2023-03-28T12:19:06.082Z,100355.69
2023-03-28T12:20:59.832Z,100356.09
2023-03-28T12:22:22.661Z,100357.44
2023-03-28T12:23:41.924Z,100346.06
2023-03-28T12:25:13.737Z,100346.22
2023-03-28T12:26:28.848Z,100341.16
2023-03-28T12:27:42.820Z,100335.25
2023-03-28T12:28:58.451Z,100334.44
2023-03-28T12:30:23.705Z,100336.03
2023-03-28T12:31:44.811Z,100335.78
2023-03-28T12:33:09.418Z,100333.41
2023-03-28T12:34:38.179Z,100329.22
2023-03-28T12:35:52.366Z,100321.19
2023-03-28T12:37:11.899Z,100311.47
2023-03-28T12:38:29.161Z,100322.50
2023-03-28T12:39:54.957Z,100319.56
2023-03-28T12:41:06.185Z,100334.13
2023-03-28T12:42:12.882Z,100325.72
2023-03-28T12:43:18.695Z,100320.44
2023-03-28T12:44:28.071Z,100314.16
2023-03-28T12:45:36.910Z,100317.63
2023-03-28T12:46:47.336Z,100312.28
2023-03-28T12:47:54.368Z,100301.91
2023-03-28T12:49:00.774Z,100303.59
2023-03-28T12:50:12.146Z,100304.25
2023-03-28T12:51:30.080Z,100310.28
2023-03-28T12:52:34.946Z,100298.31
2023-03-28T12:54:07.466Z,100305.34
2023-03-28T12:55:24.693Z,100310.28
2023-03-28T12:56:27.866Z,100308.28
2023-03-28T12:57:44.908Z,100306.28
2023-03-28T12:59:00.881Z,100311.69
2023-03-28T13:00:13.450Z,100305.53
2023-03-28T13:01:40.921Z,100302.06
2023-03-28T13:03:27.988Z,100304.16
2023-03-28T13:04:52.330Z,100299.28
2023-03-28T13:06:24.973Z,100298.63
2023-03-28T13:07:46.939Z,100300.59
2023-03-28T13:09:16.083Z,100296.75
2023-03-28T13:10:30.512Z,100291.66
2023-03-28T13:11:56.976Z,100294.09
2023-03-28T13:13:44.041Z,100301.53
2023-03-28T13:15:02.322Z,100299.25
2023-03-28T13:16:15.328Z,100296.91
2023-03-28T13:17:26.328Z,100294.88
2023-03-28T13:18:34.128Z,100293.53
2023-03-28T13:19:42.672Z,100292.81
2023-03-28T13:20:48.004Z,100289.97
2023-03-28T13:21:57.507Z,100293.75
2023-03-28T13:23:07.460Z,100280.34
2023-03-28T13:24:29.941Z,100287.63
2023-03-28T13:25:32.965Z,100282.53
2023-03-28T13:26:53.990Z,100281.69
2023-03-28T13:28:11.365Z,100278.16
2023-03-28T13:29:13.611Z,100272.75
2023-03-28T13:30:21.155Z,100266.91
2023-03-28T13:31:26.052Z,100264.84
2023-03-28T13:32:35.234Z,100262.75
2023-03-28T13:33:44.967Z,100250.03
2023-03-28T13:34:56.654Z,100257.59
2023-03-28T13:35:58.990Z,100258.81
2023-03-28T13:37:22.579Z,100251.13
2023-03-28T13:38:28.177Z,100253.13
2023-03-28T13:39:30.486Z,100250.97
2023-03-28T13:41:09.170Z,100246.44
2023-03-28T13:42:56.993Z,100244.47
2023-03-28T13:44:01.864Z,100231.19
2023-03-28T13:45:23.180Z,100235.25
2023-03-28T13:46:43.101Z,100233.31
2023-03-28T13:47:46.046Z,100226.53
2023-03-28T13:49:02.833Z,100227.50
2023-03-28T13:50:26.518Z,100231.16
2023-03-28T13:51:39.106Z,100230.72
2023-03-28T13:52:41.367Z,100228.69
2023-03-28T13:53:48.073Z,100229.53
2023-03-28T13:54:54.357Z,100219.56
2023-03-28T13:56:18.678Z,100222.09
2023-03-28T13:57:25.687Z,100215.53
2023-03-28T13:58:29.030Z,100217.81